Flight Track Log - Related Links

Times and Time Zones

All times are in EDT time to prevent confusion due to time zone crossing. See the ASQ4253 flight status page for this flight to view local times or setup timezone preferences in your user account.

Time Position Orientation Groundspeed Altitude Reporting Facility
EDT Latitude Longitude Course Direction KTS MPH feet Rate Location/Type
Fri 04:44:30 PM 29.9594 -95.3414 95° East 166 191 600  Level Houston Center
Fri 04:45:43 PM 29.9336 -95.2675 112° Southeast 248 285 2,300 1,514 Climbing Houston Center
Fri 04:46:21 PM 29.9289 -95.2322 99° East 236 272 3,400 1,080 Climbing Houston Center
Fri 04:47:23 PM 29.9322 -95.1464 87° East 276 318 4,100 871 Climbing Houston Center
Fri 04:48:25 PM 29.9433 -95.0625 81° East 270 311 5,200 1,887 Climbing Houston Center
Fri 04:49:00 PM 29.9014 -94.6833 95° East  Level FlightAware Approximate
Fri 04:49:27 PM 29.9311 -94.9594 98° East 269 310 8,000  Level Houston Center
Fri 04:50:29 PM 29.9217 -94.8703 97° East 276 318 10,100 1,645 Climbing Houston Center
Fri 04:51:31 PM 29.9117 -94.7750 97° East 290 334 11,400 1,113 Climbing Houston Center
Fri 04:52:33 PM 29.9006 -94.6694 97° East 323 372 12,400 968 Climbing Houston Center
Fri 04:53:35 PM 29.8878 -94.5553 97° East 354 407 13,400 1,016 Climbing Houston Center
Fri 04:54:37 PM 29.8758 -94.4386 97° East 364 419 14,500 1,248 Climbing Houston Center
Fri 04:55:40 PM 29.8806 -94.2964 88° East 367 422 16,000 1,392 Climbing Houston Center
Fri 04:56:42 PM 29.8914 -94.1806 84° East 364 419 17,400 1,065 Climbing Houston Center
Fri 04:57:44 PM 29.9325 -94.0803 65° Northeast 356 410 18,200 871 Climbing Houston Center
Fri 04:58:46 PM 29.9753 -93.9744 65° Northeast 364 419 19,200 968 Climbing Houston Center
Fri 04:59:48 PM 30.0153 -93.8644 67° East 371 427 20,200 1,065 Climbing Houston Center
Fri 05:00:50 PM 30.0658 -93.7319 66° East 378 435 21,400 1,012 Climbing Houston Center
Fri 05:02:00 PM 30.1178 -93.5914 67° East  Level Estimated
Fri 05:03:57 PM 30.1833 -93.3900 67° East 388 447 24,400  Level Houston Center
Fri 05:04:59 PM 30.2319 -93.2553 67° East 385 443 25,600 1,065 Climbing Houston Center
Fri 05:06:01 PM 30.2656 -93.1378 72° East 390 449 26,600 968 Climbing Houston Center
Fri 05:07:03 PM 30.2844 -93.0150 80° East 392 451 27,600 968 Climbing Houston Center
Fri 05:08:05 PM 30.2975 -92.8922 83° East 388 447 28,600 968 Climbing Houston Center
Fri 05:09:00 PM 30.4265 -92.7452 67° East  Level Estimated
Fri 05:09:07 PM 30.3122 -92.7669 82° East 393 452 29,600  Level Houston Center
Fri 05:10:09 PM 30.3281 -92.6147 83° East 397 457 30,800 1,065 Climbing Houston Center
Fri 05:11:11 PM 30.3428 -92.4869 82° East 401 461 31,800 968 Climbing Houston Center
Fri 05:12:13 PM 30.3558 -92.3578 83° East 405 466 32,800 960 Climbing Houston Center
Fri 05:13:16 PM 30.3706 -92.2300 82° East 409 471 33,800 1,056 Climbing Houston Center
Fri 05:14:18 PM 30.3864 -92.0758 83° East 407 468 35,000 581 Climbing Houston Center
Fri 05:15:20 PM 30.4000 -91.9442 83° East 413 475 35,000  Level Houston Center
Fri 05:16:22 PM 30.4156 -91.8044 83° East 436 502 35,000  Level Houston Center
Fri 05:17:24 PM 30.4300 -91.6714 83° East 451 519 35,000  Level Houston Center
Fri 05:18:26 PM 30.4478 -91.4958 83° East 458 527 35,000  Level Houston Center
Fri 05:19:28 PM 30.4625 -91.3539 83° East 446 513 35,000  Level Houston Center
Fri 05:20:30 PM 30.4764 -91.2131 83° East 442 509 35,000  Level Houston Center
Fri 05:21:32 PM 30.4903 -91.0711 83° East 444 511 35,000  Level Houston Center
Fri 05:22:34 PM 30.5047 -90.9272 83° East 449 517 35,000  Level Houston Center
Fri 05:23:37 PM 30.5175 -90.7833 84° East 449 517 35,000  Level Houston Center
Fri 05:24:39 PM 30.5344 -90.6089 84° East 454 522 35,000 -48 Level Houston Center
Fri 05:25:41 PM 30.5489 -90.4625 83° East 456 525 34,900  Descending Houston Center
Fri 05:26:43 PM 30.5619 -90.3169 84° East 454 522 35,000 48 Climbing Houston Center
Fri 05:27:45 PM 30.5764 -90.1725 83° East 452 520 35,000  Level Houston Center
Fri 05:28:47 PM 30.6278 -90.0425 65° Northeast 440 506 35,000  Level Houston Center
Fri 05:29:49 PM 30.6844 -89.9156 63° Northeast 439 505 35,000  Level Houston Center
Fri 05:30:51 PM 30.7408 -89.7894 62° Northeast 435 501 35,000  Level Houston Center
Fri 05:31:53 PM 30.8081 -89.6386 63° Northeast 434 499 35,000  Level Houston Center
Fri 05:32:55 PM 30.8631 -89.5133 63° Northeast 435 501 35,000  Level Houston Center
Fri 05:33:57 PM 30.9194 -89.3881 62° Northeast 435 501 35,000  Level Houston Center
Fri 05:35:00 PM 30.9747 -89.2617 63° Northeast 438 504 35,000  Level Houston Center
Fri 05:36:02 PM 31.0297 -89.1336 63° Northeast 438 504 35,000  Level Houston Center
Fri 05:37:04 PM 31.0853 -89.0075 63° Northeast 439 505 35,000  Level Houston Center
Fri 05:38:06 PM 31.1450 -88.8717 63° Northeast 440 506 35,000  Level Houston Center
Fri 05:39:08 PM 31.2014 -88.7439 63° Northeast 440 506 35,000  Level Houston Center
Fri 05:40:10 PM 31.2578 -88.6136 63° Northeast 444 511 35,000  Level Houston Center
Fri 05:41:12 PM 31.3267 -88.4561 63° Northeast 449 517 35,000  Level Houston Center
Fri 05:42:14 PM 31.3850 -88.3250 62° Northeast 449 517 35,000  Level Houston Center
Fri 05:43:17 PM 31.4425 -88.1911 63° Northeast 454 522 35,000  Level Houston Center
Fri 05:44:19 PM 31.4983 -88.0556 64° Northeast 460 529 35,000  Level Houston Center
Fri 05:45:21 PM 31.5550 -87.9222 63° Northeast 457 526 35,000  Level Houston Center
Fri 05:46:23 PM 31.6086 -87.7861 65° Northeast 462 532 35,000  Level Houston Center
Fri 05:47:20 PM 31.6481 -87.6419 72° East 452 520 35,000  Level Atlanta Center
Fri 05:48:20 PM 31.6836 -87.4969 74° East 457 526 35,000  Level Atlanta Center
Fri 05:49:20 PM 31.7231 -87.3494 73° East 457 526 35,000  Level Atlanta Center
Fri 05:50:20 PM 31.7608 -87.1897 74° East 457 526 35,000  Level Atlanta Center
Fri 05:51:20 PM 31.8000 -87.0419 73° East 457 526 35,000  Level Atlanta Center
Fri 05:52:20 PM 31.8511 -86.9019 67° East 462 532 35,000  Level Atlanta Center
Fri 05:53:20 PM 31.9067 -86.7617 65° Northeast 467 537 35,000  Level Atlanta Center
Fri 05:54:20 PM 31.9617 -86.6214 65° Northeast 467 537 35,000  Level Atlanta Center
Fri 05:55:20 PM 32.0164 -86.4981 62° Northeast 472 543 35,000  Level Atlanta Center
Fri 05:56:20 PM 32.0714 -86.3575 65° Northeast 472 543 35,000  Level Atlanta Center
Fri 05:57:20 PM 32.1239 -86.2167 66° East 467 537 35,000  Level Atlanta Center
Fri 05:58:20 PM 32.1828 -86.0658 65° Northeast 460 529 35,000  Level Atlanta Center
Fri 05:59:20 PM 32.2203 -85.9417 70° East 453 521 35,000  Level Atlanta Center
Fri 06:00:20 PM 32.2744 -85.8075 64° Northeast 447 514 35,000  Level Atlanta Center
Fri 06:01:20 PM 32.3267 -85.6661 66° East 454 522 35,000  Level Atlanta Center
Fri 06:02:20 PM 32.3783 -85.5317 66° East 454 522 35,000  Level Atlanta Center
Fri 06:03:20 PM 32.4300 -85.3922 66° East 449 517 35,000  Level Atlanta Center
Fri 06:04:20 PM 32.4794 -85.2553 67° East 459 528 35,000  Level Atlanta Center
Fri 06:05:20 PM 32.5372 -85.1181 63° Northeast 459 528 35,000  Level Atlanta Center
Fri 06:06:20 PM 32.5822 -84.9756 69° East 459 528 35,000  Level Atlanta Center
Fri 06:07:20 PM 32.6375 -84.8381 64° Northeast 459 528 35,000  Level Atlanta Center
Fri 06:08:20 PM 32.6883 -84.7053 66° East 446 513 35,000  Level Atlanta Center
Fri 06:09:20 PM 32.7411 -84.5647 66° East 451 519 35,000 -50 Level Atlanta Center
Fri 06:10:20 PM 32.7958 -84.4094 67° East 456 525 34,900 -500 Descending Atlanta Center
Fri 06:11:20 PM 32.8486 -84.2689 66° East 456 525 34,000 -850 Descending Atlanta Center
Fri 06:12:20 PM 32.8925 -84.1453 67° East 451 519 33,200 -900 Descending Atlanta Center
Fri 06:13:20 PM 32.9425 -84.0067 67° East 446 513 32,200 -950 Descending Atlanta Center
Fri 06:14:20 PM 32.9925 -83.8631 67° East 453 521 31,300 -1,000 Descending Atlanta Center
Fri 06:15:20 PM 33.0467 -83.7217 65° Northeast 458 527 30,200 -1,400 Descending Atlanta Center
Fri 06:16:20 PM 33.1003 -83.5653 68° East 458 527 28,500 -1,450 Descending Atlanta Center
Fri 06:17:20 PM 33.1456 -83.4333 68° East 458 527 27,300 -1,350 Descending Atlanta Center
Fri 06:18:20 PM 33.1950 -83.2867 68° East 465 535 25,800 -1,500 Descending Atlanta Center
Fri 06:19:20 PM 33.2483 -83.1397 67° East 472 543 24,300 -1,450 Descending Atlanta Center
Fri 06:20:20 PM 33.2931 -83.0000 69° East 472 543 22,900 -1,450 Descending Atlanta Center
Fri 06:21:20 PM 33.3461 -82.8625 65° Northeast 448 516 21,400 -1,550 Descending Atlanta Center
Fri 06:22:20 PM 33.3928 -82.7275 67° East 437 503 19,800 -1,550 Descending Atlanta Center
Fri 06:23:20 PM 33.4353 -82.6000 68° East 423 487 18,300 -1,400 Descending Atlanta Center
Fri 06:24:20 PM 33.4836 -82.4747 65° Northeast 416 479 17,000 -1,400 Descending Atlanta Center
Fri 06:25:20 PM 33.5194 -82.3444 72° East 400 460 15,500 -1,450 Descending Atlanta Center
Fri 06:26:20 PM 33.5619 -82.2339 65° Northeast 387 445 14,100 -1,298 Descending Atlanta Center
Fri 06:28:48 PM 33.6639 -81.9419 67° East 365 420 11,000 -923 Descending Jacksonville Center
Fri 06:29:48 PM 33.7025 -81.8267 68° East 365 420 10,900 -450 Descending Jacksonville Center
Fri 06:30:48 PM 33.7331 -81.7364 68° East 345 397 10,100 -1,300 Descending Jacksonville Center
Fri 06:31:48 PM 33.7636 -81.6508 67° East 306 352 8,300 -1,850 Descending Jacksonville Center
Fri 06:32:48 PM 33.7919 -81.5681 68° East 283 326 6,400 -1,650 Descending Jacksonville Center
Fri 06:33:48 PM 33.8203 -81.4853 68° East 265 305 5,000 -1,050 Descending Jacksonville Center
Fri 06:34:48 PM 33.8761 -81.4542 25° Northeast 224 258 4,300 -850 Descending Jacksonville Center
Fri 06:35:48 PM 33.9342 -81.4233 24° Northeast 215 247 3,300 -1,000 Descending Jacksonville Center
Fri 06:36:48 PM 33.9669 -81.3600 58° Northeast 220 253 2,300 -1,000 Descending Jacksonville Center

Login

Don't have an account? Register now (free) for customized features, flight alerts, and more!